createdAt,value
2018-10-17T00:00:05.585Z,72.02
2018-10-17T00:00:31.747Z,72.22
2018-10-17T00:00:57.920Z,72.22
2018-10-17T00:01:24.026Z,71.83
2018-10-17T00:01:50.150Z,71.73
2018-10-17T00:02:16.278Z,71.73
2018-10-17T00:02:42.411Z,72.41
2018-10-17T00:03:08.546Z,72.99
2018-10-17T00:03:34.672Z,72.5
2018-10-17T00:04:00.803Z,72.5
2018-10-17T00:04:26.929Z,73.08
2018-10-17T00:04:53.096Z,72.79
2018-10-17T00:05:19.246Z,72.79
2018-10-17T00:05:45.375Z,72.99
2018-10-17T00:06:11.513Z,72.89
2018-10-17T00:06:37.664Z,72.89
2018-10-17T00:07:03.856Z,73.27
2018-10-17T00:07:29.943Z,73.37
2018-10-17T00:07:56.090Z,73.75
2018-10-17T00:08:22.237Z,73.56
2018-10-17T00:08:48.372Z,73.56
2018-10-17T00:09:14.502Z,73.66
2018-10-17T00:09:40.634Z,73.37
2018-10-17T00:10:06.764Z,73.46
2018-10-17T00:10:32.914Z,73.56
2018-10-17T00:10:59.104Z,73.46
2018-10-17T00:11:25.192Z,73.52
2018-10-17T00:11:51.321Z,73.56
2018-10-17T00:12:17.449Z,73.27
2018-10-17T00:12:43.598Z,73.46
2018-10-17T00:13:09.829Z,73.18
2018-10-17T00:13:35.937Z,72.79
2018-10-17T00:14:02.071Z,72.99
2018-10-17T00:14:28.206Z,73.08
2018-10-17T00:14:54.334Z,73.18
2018-10-17T00:15:20.458Z,72.69
2018-10-17T00:15:46.601Z,73.08
2018-10-17T00:16:12.736Z,72.79
2018-10-17T00:16:38.870Z,73.27
2018-10-17T00:17:05.043Z,73.18
2018-10-17T00:17:31.163Z,72.69
2018-10-17T00:17:57.319Z,72.89
2018-10-17T00:18:23.470Z,72.69
2018-10-17T00:18:49.596Z,73.37
2018-10-17T00:19:15.881Z,72.5
2018-10-17T00:19:41.866Z,72.5
2018-10-17T00:20:07.992Z,72.79
2018-10-17T00:20:34.116Z,72.69
2018-10-17T00:21:00.245Z,72.89
2018-10-17T00:21:26.388Z,72.6
2018-10-17T00:21:52.525Z,72.02
2018-10-17T00:22:18.679Z,71.83
2018-10-17T00:22:44.809Z,71.83
2018-10-17T00:23:11.007Z,71.93
2018-10-17T00:23:37.080Z,72.02
2018-10-17T00:24:03.217Z,72.22
2018-10-17T00:24:29.343Z,72.31
2018-10-17T00:24:55.539Z,72.41
2018-10-17T00:25:21.631Z,72.6
2018-10-17T00:25:47.763Z,72.31
2018-10-17T00:26:13.889Z,71.93
2018-10-17T00:26:40.010Z,71.93
2018-10-17T00:27:06.140Z,71.93
2018-10-17T00:27:32.274Z,72.02
2018-10-17T00:27:58.401Z,72.41
2018-10-17T00:28:24.553Z,72.89
2018-10-17T00:28:50.749Z,72.5
2018-10-17T00:29:16.932Z,72.6
2018-10-17T00:29:42.950Z,72.02
2018-10-17T00:30:09.083Z,72.41
2018-10-17T00:30:35.312Z,72.79
2018-10-17T00:31:01.557Z,72.5
2018-10-17T00:31:27.625Z,72.02
2018-10-17T00:31:53.770Z,72.5
2018-10-17T00:32:19.898Z,72.69
2018-10-17T00:32:46.034Z,72.79
2018-10-17T00:33:12.166Z,73.18
2018-10-17T00:33:38.298Z,73.08
2018-10-17T00:34:04.444Z,73.08
2018-10-17T00:34:30.572Z,72.79
2018-10-17T00:34:56.712Z,72.79
2018-10-17T00:35:22.862Z,73.18
2018-10-17T00:35:49.017Z,73.08
2018-10-17T00:36:15.175Z,72.31
2018-10-17T00:36:41.329Z,72.5
2018-10-17T00:37:07.528Z,72.22
2018-10-17T00:37:33.605Z,72.41
2018-10-17T00:37:59.764Z,72.31
2018-10-17T00:38:25.893Z,72.5
2018-10-17T00:38:52.024Z,72.69
2018-10-17T00:39:18.152Z,72.6
2018-10-17T00:39:44.300Z,72.41
2018-10-17T00:40:10.474Z,72.6
2018-10-17T00:40:36.668Z,72.89
2018-10-17T00:41:02.763Z,72.41
2018-10-17T00:41:28.855Z,72.5
2018-10-17T00:41:54.988Z,72.22
2018-10-17T00:42:21.163Z,71.93
2018-10-17T00:42:47.290Z,71.93
2018-10-17T00:43:13.585Z,72.22
2018-10-17T00:43:39.589Z,72.31
2018-10-17T00:44:05.718Z,72.22
2018-10-17T00:44:31.846Z,72.41
2018-10-17T00:44:57.977Z,71.83
2018-10-17T00:45:24.104Z,71.93
2018-10-17T00:45:50.236Z,72.12
2018-10-17T00:46:16.380Z,72.5
2018-10-17T00:46:42.508Z,72.79
2018-10-17T00:47:08.701Z,72.31
2018-10-17T00:47:34.801Z,72.69
2018-10-17T00:48:00.927Z,72.5
2018-10-17T00:48:27.078Z,72.6
2018-10-17T00:48:53.211Z,72.79
2018-10-17T00:49:19.371Z,72.6
2018-10-17T00:49:45.504Z,72.6
2018-10-17T00:50:11.635Z,72.22
2018-10-17T00:50:37.767Z,72.31
2018-10-17T00:51:03.899Z,72.41
2018-10-17T00:51:30.030Z,73.27
2018-10-17T00:51:56.161Z,73.08
2018-10-17T00:52:22.315Z,73.08
2018-10-17T00:52:48.444Z,73.08
2018-10-17T00:53:14.629Z,73.08
2018-10-17T00:53:40.706Z,72.75
2018-10-17T00:54:06.840Z,72.69
2018-10-17T00:54:32.964Z,72.79
2018-10-17T00:54:59.161Z,73.04
2018-10-17T00:55:25.290Z,72.99
2018-10-17T00:55:51.420Z,73.08
2018-10-17T00:56:17.568Z,72.79
2018-10-17T00:56:43.724Z,73.04
2018-10-17T00:57:09.856Z,72.66
2018-10-17T00:57:36.010Z,73.24
2018-10-17T00:58:02.146Z,73.14
2018-10-17T00:58:28.295Z,73.72
2018-10-17T00:58:54.426Z,73.43
2018-10-17T00:59:20.581Z,73.43
2018-10-17T00:59:46.738Z,73.62
2018-10-17T01:00:12.934Z,73.62
2018-10-17T01:00:39.065Z,73.46
2018-10-17T01:01:05.329Z,73.14
2018-10-17T01:01:31.334Z,73.56
2018-10-17T01:01:57.465Z,73.27
2018-10-17T01:02:23.638Z,72.99
2018-10-17T01:02:49.763Z,72.69
2018-10-17T01:03:15.898Z,72.99
2018-10-17T01:03:42.047Z,73.18
2018-10-17T01:04:08.177Z,73.08
2018-10-17T01:04:34.301Z,72.5
2018-10-17T01:05:00.491Z,72.31
2018-10-17T01:05:26.575Z,72.31
2018-10-17T01:05:52.711Z,72.6
2018-10-17T01:06:18.838Z,72.89
2018-10-17T01:06:45.022Z,72.5
2018-10-17T01:07:11.207Z,72.31
2018-10-17T01:07:37.282Z,72.89
2018-10-17T01:08:03.415Z,72.31
2018-10-17T01:08:29.570Z,72.5
2018-10-17T01:08:55.717Z,72.5
2018-10-17T01:09:21.835Z,72.22
2018-10-17T01:09:47.996Z,73.08
2018-10-17T01:10:14.131Z,72.99
2018-10-17T01:10:40.253Z,72.41
2018-10-17T01:11:06.436Z,72.69
2018-10-17T01:11:32.520Z,72.79
2018-10-17T01:11:58.645Z,72.79
2018-10-17T01:12:24.800Z,72.6
2018-10-17T01:12:50.981Z,72.79
2018-10-17T01:13:17.054Z,72.5
2018-10-17T01:13:43.184Z,72.31
2018-10-17T01:14:09.311Z,72.31
2018-10-17T01:14:35.443Z,72.6
2018-10-17T01:15:01.578Z,72.6
2018-10-17T01:15:27.707Z,72.89
2018-10-17T01:15:53.830Z,72.41
2018-10-17T01:16:19.968Z,72.02
2018-10-17T01:16:46.116Z,71.93
2018-10-17T01:17:12.402Z,71.73
2018-10-17T01:17:38.429Z,71.93
2018-10-17T01:18:04.557Z,72.41
2018-10-17T01:18:30.733Z,71.93
2018-10-17T01:18:56.868Z,72.22
2018-10-17T01:19:22.992Z,72.22
2018-10-17T01:19:49.124Z,71.73
2018-10-17T01:20:15.252Z,72.31
2018-10-17T01:20:41.401Z,72.41
2018-10-17T01:21:07.548Z,72.12
2018-10-17T01:21:33.676Z,71.93
2018-10-17T01:21:59.801Z,72.12
2018-10-17T01:22:25.927Z,72.31
2018-10-17T01:22:52.114Z,72.89
2018-10-17T01:23:18.225Z,71.64
2018-10-17T01:23:44.360Z,71.73
2018-10-17T01:24:10.491Z,71.93
2018-10-17T01:24:36.640Z,71.93
2018-10-17T01:25:02.780Z,72.5
2018-10-17T01:25:28.954Z,72.12
2018-10-17T01:25:55.084Z,71.83
2018-10-17T01:26:21.212Z,72.22
2018-10-17T01:26:47.365Z,72.41
2018-10-17T01:27:13.507Z,72.5
2018-10-17T01:27:39.633Z,72.31
2018-10-17T01:28:05.764Z,71.93
2018-10-17T01:28:31.891Z,71.73
2018-10-17T01:28:58.044Z,71.83
2018-10-17T01:29:24.186Z,72.5
2018-10-17T01:29:50.320Z,72.22
2018-10-17T01:30:16.450Z,73.18
2018-10-17T01:30:42.574Z,72.5
2018-10-17T01:31:08.732Z,72.41
2018-10-17T01:31:34.853Z,72.5
2018-10-17T01:32:00.982Z,72.41
2018-10-17T01:32:27.109Z,72.5
2018-10-17T01:32:53.244Z,72.28
2018-10-17T01:33:19.380Z,72.79
2018-10-17T01:33:45.525Z,72.6
2018-10-17T01:34:11.657Z,72.6
2018-10-17T01:34:37.788Z,72.6
2018-10-17T01:35:03.947Z,72.69
2018-10-17T01:35:30.070Z,72.6
2018-10-17T01:35:56.255Z,72.79
2018-10-17T01:36:22.405Z,72.5
2018-10-17T01:36:48.542Z,72.31
2018-10-17T01:37:14.793Z,72.47
2018-10-17T01:37:40.824Z,72.37
2018-10-17T01:38:06.974Z,72.41
2018-10-17T01:38:33.104Z,72.31
2018-10-17T01:38:59.231Z,72.5
2018-10-17T01:39:25.388Z,72.5
2018-10-17T01:39:51.532Z,72.41
2018-10-17T01:40:17.719Z,72.95
2018-10-17T01:40:43.794Z,72.66
2018-10-17T01:41:09.946Z,72.95
2018-10-17T01:41:36.045Z,72.95
2018-10-17T01:42:02.180Z,72.85
2018-10-17T01:42:28.333Z,73.04
2018-10-17T01:42:54.549Z,73.24
2018-10-17T01:43:20.639Z,73.24
2018-10-17T01:43:46.778Z,73.33
2018-10-17T01:44:12.929Z,73.33
2018-10-17T01:44:39.055Z,73.62
2018-10-17T01:45:05.187Z,73.43
2018-10-17T01:45:31.332Z,73.33
2018-10-17T01:45:57.466Z,73.24
2018-10-17T01:46:23.596Z,73.43
2018-10-17T01:46:49.726Z,73.24
2018-10-17T01:47:15.987Z,72.75
2018-10-17T01:47:42.013Z,72.75
2018-10-17T01:48:08.131Z,73.04
2018-10-17T01:48:34.258Z,73.18
2018-10-17T01:49:00.470Z,72.31
2018-10-17T01:49:26.553Z,73.24
2018-10-17T01:49:52.687Z,73.14
2018-10-17T01:50:18.842Z,73.14
2018-10-17T01:50:44.997Z,73.18
2018-10-17T01:51:11.148Z,73.08
2018-10-17T01:51:37.274Z,73.08
2018-10-17T01:52:03.398Z,73.04
2018-10-17T01:52:29.529Z,72.75
2018-10-17T01:52:55.703Z,73.24
2018-10-17T01:53:21.810Z,73.24
2018-10-17T01:53:47.935Z,73.43
2018-10-17T01:54:14.088Z,73.14
2018-10-17T01:54:40.221Z,73.33
2018-10-17T01:55:06.429Z,73.43
2018-10-17T01:55:32.503Z,73.33
2018-10-17T01:55:58.631Z,73.33
2018-10-17T01:56:24.757Z,73.24
2018-10-17T01:56:50.890Z,73.24
2018-10-17T01:57:17.039Z,73.33
2018-10-17T01:57:43.173Z,73.62
2018-10-17T01:58:09.310Z,73.72
2018-10-17T01:58:35.473Z,73.43
2018-10-17T01:59:01.608Z,73.43
2018-10-17T01:59:27.780Z,73.43
2018-10-17T01:59:53.902Z,73.04
2018-10-17T02:00:20.035Z,73.62
2018-10-17T02:00:46.179Z,73.43
2018-10-17T02:01:12.418Z,73.43
2018-10-17T02:01:38.439Z,73.52
2018-10-17T02:02:04.571Z,74.39
2018-10-17T02:02:30.717Z,74.39
2018-10-17T02:02:56.870Z,73.97
2018-10-17T02:03:23.003Z,73.97
2018-10-17T02:03:49.123Z,74.44
2018-10-17T02:04:15.248Z,74.54
2018-10-17T02:04:41.386Z,74.73
2018-10-17T02:05:07.583Z,74.93
2018-10-17T02:05:33.674Z,75.12
2018-10-17T02:05:59.822Z,74.83
2018-10-17T02:06:25.946Z,74.93
2018-10-17T02:06:52.112Z,75.12
2018-10-17T02:07:18.234Z,75.21
2018-10-17T02:07:44.361Z,75.02
2018-10-17T02:08:10.491Z,75.5
2018-10-17T02:08:36.627Z,75.7
2018-10-17T02:09:02.779Z,75.21
2018-10-17T02:09:28.909Z,75.7
2018-10-17T02:09:55.035Z,75.6
2018-10-17T02:10:21.159Z,75.02
2018-10-17T02:10:47.293Z,75.98
2018-10-17T02:11:13.480Z,75.5
2018-10-17T02:11:39.586Z,75.7
2018-10-17T02:12:05.725Z,76.27
2018-10-17T02:12:31.851Z,76.27
2018-10-17T02:12:58.036Z,76.32
2018-10-17T02:13:24.133Z,76.23
2018-10-17T02:13:50.263Z,76.42
2018-10-17T02:14:16.389Z,76.32
2018-10-17T02:14:42.525Z,76.62
2018-10-17T02:15:08.653Z,76.32
2018-10-17T02:15:34.812Z,76.42
2018-10-17T02:16:00.992Z,76.52
2018-10-17T02:16:27.113Z,76.71
2018-10-17T02:16:53.252Z,77.09
2018-10-17T02:17:19.396Z,76.9
2018-10-17T02:17:45.549Z,77.19
2018-10-17T02:18:11.676Z,77.48
2018-10-17T02:18:37.808Z,77
2018-10-17T02:19:04.062Z,77.29
2018-10-17T02:19:30.136Z,77
2018-10-17T02:19:56.288Z,77.29
2018-10-17T02:20:22.418Z,77.09
2018-10-17T02:20:48.549Z,77.19
2018-10-17T02:21:14.674Z,77.09
2018-10-17T02:21:40.845Z,76.81
2018-10-17T02:22:06.983Z,76.81
2018-10-17T02:22:33.125Z,76.62
2018-10-17T02:22:59.330Z,76.62
2018-10-17T02:23:25.412Z,76.71
2018-10-17T02:23:51.544Z,76.62
2018-10-17T02:24:17.672Z,76.23
2018-10-17T02:24:43.803Z,76.52
2018-10-17T02:25:09.975Z,76.52
2018-10-17T02:25:36.069Z,76.42
2018-10-17T02:26:02.201Z,76.04
2018-10-17T02:26:28.345Z,76.42
2018-10-17T02:26:54.473Z,76.14
2018-10-17T02:27:20.606Z,76.42
2018-10-17T02:27:46.740Z,76.52
2018-10-17T02:28:12.859Z,76.27
2018-10-17T02:28:38.990Z,76.46
2018-10-17T02:29:05.157Z,75.98
2018-10-17T02:29:31.253Z,76.56
2018-10-17T02:29:57.426Z,76.56
2018-10-17T02:30:23.597Z,76.14
2018-10-17T02:30:49.750Z,76.17
2018-10-17T02:31:16.021Z,75.98
2018-10-17T02:31:42.060Z,75.79
2018-10-17T02:32:08.184Z,75.6
2018-10-17T02:32:34.320Z,76.07
2018-10-17T02:33:00.471Z,75.5
2018-10-17T02:33:26.623Z,75.4
2018-10-17T02:33:52.791Z,75.12
2018-10-17T02:34:18.969Z,75.31
2018-10-17T02:34:45.093Z,75.21
2018-10-17T02:35:11.269Z,74.93
2018-10-17T02:35:37.394Z,75.12
2018-10-17T02:36:03.519Z,75.21
2018-10-17T02:36:29.689Z,75.31
2018-10-17T02:36:55.854Z,74.64
2018-10-17T02:37:21.948Z,74.64
2018-10-17T02:37:48.102Z,74.73
2018-10-17T02:38:14.264Z,75.4
2018-10-17T02:38:40.391Z,75.12
2018-10-17T02:39:06.544Z,74.93
2018-10-17T02:39:32.775Z,75.12
2018-10-17T02:39:58.851Z,75.21
2018-10-17T02:40:25.003Z,74.54
2018-10-17T02:40:51.189Z,74.73
2018-10-17T02:41:17.389Z,74.64
2018-10-17T02:41:43.450Z,74.83
2018-10-17T02:42:09.597Z,74.83
2018-10-17T02:42:35.740Z,74.16
2018-10-17T02:43:01.969Z,74.54
2018-10-17T02:43:28.067Z,74.35
2018-10-17T02:43:54.216Z,74.44
2018-10-17T02:44:20.391Z,74.64
2018-10-17T02:44:46.522Z,74.44
2018-10-17T02:45:12.655Z,74.26
2018-10-17T02:45:38.806Z,74.64
2018-10-17T02:46:04.960Z,74.44
2018-10-17T02:46:31.093Z,74.44
2018-10-17T02:46:57.271Z,74.64
2018-10-17T02:47:23.391Z,74.26
2018-10-17T02:47:49.554Z,74.26
2018-10-17T02:48:15.704Z,75.02
2018-10-17T02:48:41.833Z,74.64
2018-10-17T02:49:08.019Z,74.73
2018-10-17T02:49:34.157Z,74.54
2018-10-17T02:50:00.317Z,74.83
2018-10-17T02:50:26.444Z,74.83
2018-10-17T02:50:52.594Z,74.83
2018-10-17T02:51:18.746Z,74.93
2018-10-17T02:51:44.878Z,74.93
2018-10-17T02:52:11.056Z,74.93
2018-10-17T02:52:37.189Z,74.54
2018-10-17T02:53:03.414Z,74.73
2018-10-17T02:53:29.489Z,74.54
2018-10-17T02:53:55.626Z,74.64
2018-10-17T02:54:21.790Z,74.83
2018-10-17T02:54:47.917Z,75.12
2018-10-17T02:55:14.110Z,74.83
2018-10-17T02:55:40.241Z,74.16
2018-10-17T02:56:06.402Z,74.35
2018-10-17T02:56:32.538Z,74.16
2018-10-17T02:56:58.690Z,74.16
2018-10-17T02:57:24.819Z,74.44
2018-10-17T02:57:50.962Z,74.73
2018-10-17T02:58:17.108Z,74.54
2018-10-17T02:58:43.246Z,74.54
2018-10-17T02:59:09.423Z,74.54
2018-10-17T02:59:35.513Z,74.64
2018-10-17T03:00:01.678Z,74.64
2018-10-17T03:00:27.856Z,74.44
2018-10-17T03:00:54.086Z,74.64
2018-10-17T03:01:20.144Z,74.44
2018-10-17T03:01:46.275Z,74.93
2018-10-17T03:02:12.406Z,74.54
2018-10-17T03:02:38.542Z,74.64
2018-10-17T03:03:04.678Z,74.35
2018-10-17T03:03:30.814Z,74.93
2018-10-17T03:03:56.946Z,74.64
2018-10-17T03:04:23.122Z,74.83
2018-10-17T03:04:49.256Z,74.73
2018-10-17T03:05:15.515Z,74.93
2018-10-17T03:05:41.571Z,74.83
2018-10-17T03:06:07.718Z,74.73
2018-10-17T03:06:33.873Z,75.4
2018-10-17T03:07:00.050Z,75.21
2018-10-17T03:07:26.165Z,74.73
2018-10-17T03:07:52.321Z,74.83
2018-10-17T03:08:18.474Z,74.73
2018-10-17T03:08:44.638Z,74.83
2018-10-17T03:09:10.817Z,75.02
2018-10-17T03:09:36.961Z,74.83
2018-10-17T03:10:03.120Z,74.73
2018-10-17T03:10:29.276Z,74.26
2018-10-17T03:10:55.433Z,74.26
2018-10-17T03:11:21.593Z,74.44
2018-10-17T03:11:47.758Z,74.26
2018-10-17T03:12:13.890Z,74.93
2018-10-17T03:12:40.043Z,74.35
2018-10-17T03:13:06.234Z,74.73
2018-10-17T03:13:32.350Z,74.73
2018-10-17T03:13:58.502Z,75.12
2018-10-17T03:14:24.639Z,75.12
2018-10-17T03:14:50.800Z,74.73
2018-10-17T03:15:16.948Z,74.83
2018-10-17T03:15:43.088Z,74.51
2018-10-17T03:16:09.244Z,75.31
2018-10-17T03:16:35.375Z,75.02
2018-10-17T03:17:01.563Z,75.21
2018-10-17T03:17:27.655Z,75.4
2018-10-17T03:17:53.792Z,75.46
2018-10-17T03:18:19.916Z,75.37
2018-10-17T03:18:46.051Z,75.27
2018-10-17T03:19:12.319Z,75.46
2018-10-17T03:19:38.388Z,76.04
2018-10-17T03:20:04.543Z,75.85
2018-10-17T03:20:30.678Z,75.56
2018-10-17T03:20:56.821Z,76.14
2018-10-17T03:21:22.954Z,75.95
2018-10-17T03:21:49.137Z,76.04
2018-10-17T03:22:15.282Z,75.95
2018-10-17T03:22:41.459Z,75.65
2018-10-17T03:23:07.697Z,75.75
2018-10-17T03:23:33.761Z,75.95
2018-10-17T03:23:59.899Z,75.75
2018-10-17T03:24:26.049Z,75.95
2018-10-17T03:24:52.190Z,76.42
2018-10-17T03:25:18.446Z,76.52
2018-10-17T03:25:44.514Z,75.75
2018-10-17T03:26:10.675Z,76.32
2018-10-17T03:26:36.817Z,75.75
2018-10-17T03:27:02.947Z,76.14
2018-10-17T03:27:29.118Z,75.85
2018-10-17T03:27:55.369Z,76.14
2018-10-17T03:28:21.420Z,76.23
2018-10-17T03:28:47.564Z,75.85
2018-10-17T03:29:13.793Z,76.14
2018-10-17T03:29:39.851Z,75.85
2018-10-17T03:30:05.989Z,75.65
2018-10-17T03:30:32.144Z,75.75
2018-10-17T03:30:58.364Z,75.89
2018-10-17T03:31:24.545Z,75.95
2018-10-17T03:31:50.663Z,75.46
2018-10-17T03:32:16.832Z,75.5
2018-10-17T03:32:43.019Z,75.5
2018-10-17T03:33:09.199Z,75.21
2018-10-17T03:33:35.372Z,75.21
2018-10-17T03:34:01.460Z,75.37
2018-10-17T03:34:27.619Z,74.93
2018-10-17T03:34:53.869Z,75.12
2018-10-17T03:35:20.117Z,75.21
2018-10-17T03:35:46.186Z,74.93
2018-10-17T03:36:12.266Z,75.31
2018-10-17T03:36:38.449Z,75.12
2018-10-17T03:37:04.607Z,75.12
2018-10-17T03:37:30.714Z,75.12
2018-10-17T03:37:56.869Z,75.02
2018-10-17T03:38:23.005Z,75.31
2018-10-17T03:38:49.162Z,75.12
2018-10-17T03:39:15.322Z,74.83
2018-10-17T03:39:41.460Z,75.21
2018-10-17T03:40:07.591Z,75.12
2018-10-17T03:40:33.730Z,75.21
2018-10-17T03:40:59.932Z,75.5
2018-10-17T03:41:26.088Z,74.64
2018-10-17T03:41:52.219Z,75.12
2018-10-17T03:42:18.377Z,75.21
2018-10-17T03:42:44.513Z,74.93
2018-10-17T03:43:10.743Z,75.21
2018-10-17T03:43:36.774Z,75.37
2018-10-17T03:44:02.911Z,75.12
2018-10-17T03:44:29.060Z,75.18
2018-10-17T03:44:55.197Z,75.12
2018-10-17T03:45:21.320Z,75.5
2018-10-17T03:45:47.453Z,74.54
2018-10-17T03:46:13.581Z,74.73
2018-10-17T03:46:39.717Z,75.21
2018-10-17T03:47:05.913Z,74.44
2018-10-17T03:47:31.990Z,74.26
2018-10-17T03:47:58.124Z,74.44
2018-10-17T03:48:24.280Z,74.26
2018-10-17T03:48:50.421Z,74.64
2018-10-17T03:49:16.687Z,74.73
2018-10-17T03:49:42.792Z,74.93
2018-10-17T03:50:08.933Z,74.93
2018-10-17T03:50:35.109Z,74.64
2018-10-17T03:51:01.295Z,74.35
2018-10-17T03:51:27.422Z,74.16
2018-10-17T03:51:53.565Z,74.35
2018-10-17T03:52:19.697Z,74.73
2018-10-17T03:52:45.831Z,74.44
2018-10-17T03:53:12.109Z,74.54
2018-10-17T03:53:38.135Z,74.26
2018-10-17T03:54:04.288Z,74.6
2018-10-17T03:54:30.425Z,74.73
2018-10-17T03:54:56.635Z,74.64
2018-10-17T03:55:22.775Z,74.6
2018-10-17T03:55:48.936Z,74.98
2018-10-17T03:56:15.095Z,75.46
2018-10-17T03:56:41.250Z,75.18
2018-10-17T03:57:07.401Z,75.85
2018-10-17T03:57:33.521Z,75.95
2018-10-17T03:57:59.724Z,75.75
2018-10-17T03:58:25.879Z,75.08
2018-10-17T03:58:52.120Z,75.27
2018-10-17T03:59:18.261Z,75.27
2018-10-17T03:59:44.349Z,75.37
2018-10-17T04:00:10.543Z,75.27
2018-10-17T04:00:36.697Z,75.08
2018-10-17T04:01:02.996Z,75.18
2018-10-17T04:01:29.053Z,74.98
2018-10-17T04:01:55.189Z,75.46
2018-10-17T04:02:21.320Z,76.23
2018-10-17T04:02:47.502Z,75.95
2018-10-17T04:03:13.708Z,75.85
2018-10-17T04:03:39.767Z,76.14
2018-10-17T04:04:05.903Z,76.23
2018-10-17T04:04:32.085Z,76.04
2018-10-17T04:04:58.273Z,76.14
2018-10-17T04:05:24.441Z,76.14
2018-10-17T04:05:50.584Z,75.85
2018-10-17T04:06:16.711Z,76.23
2018-10-17T04:06:42.874Z,75.85
2018-10-17T04:07:09.136Z,75.85
2018-10-17T04:07:35.204Z,76.14
2018-10-17T04:08:01.361Z,75.95
2018-10-17T04:08:27.519Z,76.14
2018-10-17T04:08:53.654Z,75.95
2018-10-17T04:09:19.788Z,76.14
2018-10-17T04:09:45.935Z,76.14
2018-10-17T04:10:12.097Z,76.14
2018-10-17T04:10:38.228Z,76.04
2018-10-17T04:11:04.424Z,75.75
2018-10-17T04:11:30.487Z,76.04
2018-10-17T04:11:56.647Z,75.95
2018-10-17T04:12:22.778Z,75.85
2018-10-17T04:12:48.959Z,76.04
2018-10-17T04:13:15.192Z,76.14
2018-10-17T04:13:41.285Z,75.85
2018-10-17T04:14:07.423Z,75.65
2018-10-17T04:14:33.564Z,75.95
2018-10-17T04:14:59.717Z,76.04
2018-10-17T04:15:25.868Z,75.95
2018-10-17T04:15:52.054Z,75.75
2018-10-17T04:16:18.186Z,75.08
2018-10-17T04:16:44.343Z,75.08
2018-10-17T04:17:10.668Z,75.37
2018-10-17T04:17:36.686Z,75.37
2018-10-17T04:18:02.864Z,75.18
2018-10-17T04:18:28.993Z,75.27
2018-10-17T04:18:55.194Z,75.37
2018-10-17T04:19:21.366Z,75.27
2018-10-17T04:19:47.437Z,75.08
2018-10-17T04:20:13.565Z,75.18
2018-10-17T04:20:39.756Z,75.18
2018-10-17T04:21:05.884Z,75.08
2018-10-17T04:21:32.041Z,75.18
2018-10-17T04:21:58.205Z,75.37
2018-10-17T04:22:24.335Z,75.18
2018-10-17T04:22:50.494Z,75.37
2018-10-17T04:23:16.753Z,75.18
2018-10-17T04:23:42.837Z,75.18
2018-10-17T04:24:08.968Z,75.27
2018-10-17T04:24:35.101Z,75.18
2018-10-17T04:25:01.322Z,75.37
2018-10-17T04:25:27.390Z,75.08
2018-10-17T04:25:53.532Z,74.89
2018-10-17T04:26:19.675Z,75.46
2018-10-17T04:26:45.813Z,75.18
2018-10-17T04:27:11.941Z,75.46
2018-10-17T04:27:38.077Z,75.08
2018-10-17T04:28:04.275Z,74.98
2018-10-17T04:28:30.423Z,75.56
2018-10-17T04:28:56.643Z,75.18
2018-10-17T04:29:22.764Z,75.08
2018-10-17T04:29:48.894Z,75.27
2018-10-17T04:30:15.024Z,75.18
2018-10-17T04:30:41.180Z,75.46
2018-10-17T04:31:07.367Z,75.46
2018-10-17T04:31:33.500Z,75.46
2018-10-17T04:31:59.632Z,75.46
2018-10-17T04:32:25.816Z,75.46
2018-10-17T04:32:51.969Z,75.46
2018-10-17T04:33:18.102Z,75.27
2018-10-17T04:33:44.259Z,75.37
2018-10-17T04:34:10.413Z,75.27
2018-10-17T04:34:36.578Z,75.37
2018-10-17T04:35:02.782Z,75.37
2018-10-17T04:35:28.917Z,75.37
2018-10-17T04:35:55.078Z,75.95
2018-10-17T04:36:21.249Z,75.95
2018-10-17T04:36:47.347Z,75.37
2018-10-17T04:37:13.558Z,76.23
2018-10-17T04:37:39.734Z,76.04
2018-10-17T04:38:05.888Z,75.85
2018-10-17T04:38:32.020Z,76.23
2018-10-17T04:38:58.224Z,75.75
2018-10-17T04:39:24.363Z,75.75
2018-10-17T04:39:50.524Z,76.04
2018-10-17T04:40:16.693Z,75.27
2018-10-17T04:40:42.839Z,75.85
2018-10-17T04:41:09.033Z,76.23
2018-10-17T04:41:35.105Z,75.85
2018-10-17T04:42:01.264Z,75.65
2018-10-17T04:42:27.423Z,76.14
2018-10-17T04:42:53.677Z,76.14
2018-10-17T04:43:19.760Z,76.23
2018-10-17T04:43:45.888Z,75.65
2018-10-17T04:44:12.045Z,76.14
2018-10-17T04:44:38.205Z,76.42
2018-10-17T04:45:04.377Z,76.48
2018-10-17T04:45:30.508Z,76.32
2018-10-17T04:45:56.648Z,76.52
2018-10-17T04:46:22.820Z,76.52
2018-10-17T04:46:48.963Z,76.23
2018-10-17T04:47:15.203Z,76.52
2018-10-17T04:47:41.319Z,76.71
2018-10-17T04:48:07.439Z,76.39
2018-10-17T04:48:33.571Z,76.57
2018-10-17T04:48:59.747Z,76.52
2018-10-17T04:49:25.835Z,76.62
2018-10-17T04:49:51.973Z,76.9
2018-10-17T04:50:18.105Z,76.42
2018-10-17T04:50:44.246Z,76.52
2018-10-17T04:51:10.374Z,76.32
2018-10-17T04:51:36.508Z,76.42
2018-10-17T04:52:02.642Z,76.52
2018-10-17T04:52:28.799Z,76.42
2018-10-17T04:52:54.962Z,76.32
2018-10-17T04:53:21.077Z,76.04
2018-10-17T04:53:47.254Z,75.75
2018-10-17T04:54:13.394Z,76.42
2018-10-17T04:54:39.544Z,76.04
2018-10-17T04:55:05.762Z,76.42
2018-10-17T04:55:31.833Z,76.62
2018-10-17T04:55:57.967Z,76.52
2018-10-17T04:56:24.121Z,75.95
2018-10-17T04:56:50.249Z,76.32
2018-10-17T04:57:16.385Z,76.23
2018-10-17T04:57:42.525Z,76.04
2018-10-17T04:58:08.658Z,76.32
2018-10-17T04:58:34.783Z,76.23
2018-10-17T04:59:01.005Z,76.62
2018-10-17T04:59:27.078Z,76.42
2018-10-17T04:59:53.212Z,76.62
2018-10-17T05:00:19.373Z,76.42
2018-10-17T05:00:45.507Z,76.48
2018-10-17T05:01:11.803Z,76.62
2018-10-17T05:01:37.798Z,76.57
2018-10-17T05:02:03.952Z,77.25
2018-10-17T05:02:30.093Z,76.96
2018-10-17T05:02:56.266Z,76.96
2018-10-17T05:03:22.397Z,77.15
2018-10-17T05:03:48.555Z,76.96
2018-10-17T05:04:14.687Z,76.96
2018-10-17T05:04:41.041Z,77.73
2018-10-17T05:05:07.024Z,77.25
2018-10-17T05:05:33.170Z,77.44
2018-10-17T05:05:59.325Z,77.53
2018-10-17T05:06:25.475Z,77.63
2018-10-17T05:06:51.701Z,77.73
2018-10-17T05:07:17.869Z,77.82
2018-10-17T05:07:43.936Z,77.25
2018-10-17T05:08:10.063Z,77.44
2018-10-17T05:08:36.201Z,77.34
2018-10-17T05:09:02.325Z,77.25
2018-10-17T05:09:28.460Z,77.73
2018-10-17T05:09:54.613Z,76.96
2018-10-17T05:10:20.810Z,76.96
2018-10-17T05:10:46.961Z,76.96
2018-10-17T05:11:13.198Z,77.63
2018-10-17T05:11:39.301Z,76.86
2018-10-17T05:12:05.435Z,76.71
2018-10-17T05:12:31.569Z,76.81
2018-10-17T05:12:57.808Z,77.06
2018-10-17T05:13:23.934Z,77
2018-10-17T05:13:50.070Z,76.96
2018-10-17T05:14:16.186Z,77.06
2018-10-17T05:14:42.321Z,77
2018-10-17T05:15:08.470Z,77
2018-10-17T05:15:34.608Z,76.96
2018-10-17T05:16:00.765Z,76.96
2018-10-17T05:16:26.889Z,76.96
2018-10-17T05:16:53.097Z,76.86
2018-10-17T05:17:19.157Z,76.77
2018-10-17T05:17:45.297Z,76.96
2018-10-17T05:18:11.428Z,76.77
2018-10-17T05:18:37.562Z,76.86
2018-10-17T05:19:03.783Z,77.53
2018-10-17T05:19:29.828Z,77.73
2018-10-17T05:19:55.988Z,77.44
2018-10-17T05:20:22.139Z,77.63
2018-10-17T05:20:48.275Z,77.53
2018-10-17T05:21:14.406Z,77.53
2018-10-17T05:21:40.541Z,76.86
2018-10-17T05:22:06.679Z,77.53
2018-10-17T05:22:32.832Z,77.44
2018-10-17T05:22:59.020Z,77.73
2018-10-17T05:23:25.167Z,77.34
2018-10-17T05:23:51.323Z,76.67
2018-10-17T05:24:17.455Z,76.96
2018-10-17T05:24:43.595Z,77.15
2018-10-17T05:25:09.810Z,77.15
2018-10-17T05:25:35.881Z,76.96
2018-10-17T05:26:02.035Z,76.77
2018-10-17T05:26:28.174Z,77
2018-10-17T05:26:54.334Z,77.06
2018-10-17T05:27:20.468Z,76.77
2018-10-17T05:27:46.622Z,76.96
2018-10-17T05:28:12.777Z,76.96
2018-10-17T05:28:38.913Z,76.86
2018-10-17T05:29:05.140Z,77
2018-10-17T05:29:31.222Z,76.77
2018-10-17T05:29:57.375Z,77.06
2018-10-17T05:30:23.503Z,76.77
2018-10-17T05:30:49.631Z,76.67
2018-10-17T05:31:15.876Z,76.77
2018-10-17T05:31:41.982Z,76.77
2018-10-17T05:32:08.123Z,76.86
2018-10-17T05:32:34.302Z,76.96
2018-10-17T05:33:00.437Z,76.96
2018-10-17T05:33:26.571Z,76.77
2018-10-17T05:33:52.703Z,77.63
2018-10-17T05:34:18.844Z,77.25
2018-10-17T05:34:44.980Z,77.25
2018-10-17T05:35:11.244Z,77.63
2018-10-17T05:35:37.260Z,77.15
2018-10-17T05:36:03.392Z,76.86
2018-10-17T05:36:29.551Z,77.63
2018-10-17T05:36:55.748Z,77.73
2018-10-17T05:37:21.894Z,77.25
2018-10-17T05:37:48.130Z,77.73